Assembly, North Carolina
Current Conditions -  °F | °C
As of 6:54 AM on Sunday 23 Nov 2014 (Local Time) from KAVL Reporting Station
Light Rain Light Rain  
Wind Chill: 42°   Ceiling: 1400
Heat Index: 42°   Visibility: 9mi
Dew Point: 37°   Wind: 3mph
Humidity: 82%   Direction: 220°SW
Pressure: 30.2"   Gusts: NA
Location:  35.5251°N, 82.9723°W
Report Text: KAVL 231154Z 22003KT 9SM -RA OVC014 06/03 A3020 RMK AO2 RAB02 SLP226 P0003 60003 70003 T00560028 10083 20056 57008
Loading
Personal Weather Stations






























Interactive Weather Map New forecast layout! Learn more

10-Day Weather Forecast

Advertisements
Track Severe Weather on mobile